Westerdam — PINX — position and weather

sailwx.info

Track history (hours):
 
Tides and Currents Weather Stations Pressure Air Temp Water Temp Dewpoint Dewpoint Depression Visibility Wind Speed Wind Dir Waves Ship Positions

Westerdam

Operator: Holland America Line

Last reported at 2019-Jul-19 16:01 UTC. Time now 2019-Jul-19 18:46 UTC.
Position N 58°47' W 136°22'.

Type: Passenger vessel. MMSI: 244128000.

Date/timePositionNaut miles runAvg speedWind from/ knotsBaromVisibWave heightAir tempDewpointWater temp
2019-Jul-19 16:01N 58°47' W 136°22'015.5
2019-Jul-19 16:00N 58°47' W 136°21'714.1
2019-Jul-19 15:31N 58°42' W 136°11'714.0
2019-Jul-19 15:00N 58°36' W 136°04'612.8
2019-Jul-19 14:30N 58°29' W 136°03'510.2
2019-Jul-19 14:00N 58°25' W 135°58'4 8.8
2019-Jul-19 13:30N 58°21' W 135°57'5 9.8
2019-Jul-19 13:00N 58°19' W 135°48'713.0
2019-Jul-19 12:30N 58°16' W 135°37'612.8
2019-Jul-19 12:00N 58°14' W 135°26'  
2019-Jul-17 06:00N 56°12' W 133°42'1211.7 050 / 31002.2 2.2 13.112.216.4
2019-Jul-17 05:00N 56°18' W 133°24'1514.6 110 / 121003.5 2.2 15.414.316.4
2019-Jul-17 04:00N 56°12' W 133°00'5016.6 160 / 131004.6 2.2 14.3 7.116.4
2019-Jul-17 01:00N 55°30' W 132°12'40 2.5 140 / 271008.1 2.2 14.9 9.316.4
2019-Jul-16 09:07N 55°10' W 131°12'210.5
2019-Jul-16 08:59N 55°09' W 131°10'1511.5
2019-Jul-16 07:42N 54°54' W 131°08'211.5
2019-Jul-16 07:29N 54°52' W 131°08'611.6
2019-Jul-16 07:01N 54°46' W 131°09'611.7
2019-Jul-16 06:30N 54°41' W 131°14'713.5
2019-Jul-16 06:00N 54°35' W 131°17'713.3
2019-Jul-16 05:30N 54°28' W 131°16'612.3
2019-Jul-16 05:00N 54°24' W 131°09'2125.6
2019-Jul-16 05:00N 54°24' W 131°06'611.7 250 / 131017.710.8 15.0 9.415.7
2019-Jul-16 04:30N 54°19' W 131°03'612.5
2019-Jul-16 04:01N 54°12' W 131°02'603623.5
2019-Jul-16 04:00N 53°12' W 131°00'53109.8 310 / 61018.010.8 15.610.615.7
2019-Jul-16 03:31N 54°05' W 131°01'714.5
2019-Jul-16 03:00N 53°58' W 130°59'714.4
2019-Jul-16 02:30N 53°51' W 130°58'714.2
2019-Jul-16 02:01N 53°44' W 130°54'714.3
2019-Jul-16 01:30N 53°37' W 130°51'714.1
2019-Jul-16 01:00N 53°30' W 130°48'714.2
2019-Jul-16 00:30N 53°23' W 130°45'714.3
2019-Jul-16 00:00N 53°16' W 130°41'5338.8
2019-Jul-16 00:00N 53°12' W 130°36'3 6.2 270 / 141019.010.8 18.3 9.915.7
2019-Jul-15 23:29N 53°09' W 130°36'1019.7
2019-Jul-15 23:00N 53°00' W 130°30'1113.5 280 / 111019.410.8 17.212.115.7
2019-Jul-15 22:09N 52°51' W 130°19'531.8
2019-Jul-15 22:00N 52°48' W 130°12'247.0 290 / 71019.410.8 16.710.515.7
2019-Jul-15 21:57N 52°48' W 130°16'1316.2
2019-Jul-15 21:10N 52°38' W 130°04'216.0
2019-Jul-15 21:00N 52°36' W 130°02'172.7
2019-Jul-15 21:00N 52°36' W 130°00'816.0 270 / 121019.510.8 16.911.215.7
2019-Jul-15 20:30N 52°29' W 129°55'1222.7
2019-Jul-15 20:00N 52°18' W 129°48'221.4 270 / 101019.910.8 16.111.015.7
2019-Jul-15 19:53N 52°20' W 129°47'615.8
2019-Jul-15 19:30N 52°15' W 129°41'816.1
2019-Jul-15 19:01N 52°09' W 129°33'816.4
2019-Jul-15 18:30N 52°03' W 129°24'816.1
2019-Jul-15 18:00N 51°57' W 129°15'816.5
2019-Jul-15 17:30N 51°51' W 129°07'816.3
2019-Jul-15 17:00N 51°44' W 128°59'816.3
2019-Jul-15 16:30N 51°37' W 128°52'816.4
2019-Jul-15 16:00N 51°29' W 128°50'815.8
2019-Jul-15 15:30N 51°23' W 128°42'816.4
2019-Jul-15 15:00N 51°18' W 128°32'816.6
2019-Jul-15 14:30N 51°13' W 128°21'816.8
2019-Jul-15 14:00N 51°09' W 128°10'816.5
2019-Jul-15 13:30N 51°05' W 127°58'816.4
2019-Jul-15 13:00N 50°60' W 127°48'917.3
2019-Jul-15 12:30N 50°54' W 127°38'917.1
2019-Jul-15 11:59N 50°49' W 127°25'916.6
2019-Jul-15 11:28N 50°46' W 127°13'1115.7
2019-Jul-15 10:47N 50°42' W 126°57'4915.0
2019-Jul-15 07:32N 50°23' W 125°47'115.9
2019-Jul-15 07:29N 50°22' W 125°46'1315.4
2019-Jul-15 06:40N 50°20' W 125°26'214.0
2019-Jul-15 06:30N 50°18' W 125°25'816.2
2019-Jul-15 06:00N 50°10' W 125°22'612.9
2019-Jul-15 05:30N 50°05' W 125°16'714.6
2019-Jul-15 05:00N 49°58' W 125°11'919.2
2019-Jul-15 04:30N 49°52' W 125°00'1019.3
2019-Jul-15 04:01N 49°45' W 124°50'1121.3
2019-Jul-15 03:31N 49°39' W 124°37'1121.6
2019-Jul-15 03:00N 49°34' W 124°22'919.1
2019-Jul-15 02:31N 49°29' W 124°09'918.9
2019-Jul-15 02:01N 49°25' W 123°56'1019.0
2019-Jul-15 01:30N 49°22' W 123°42'1019.5
2019-Jul-15 01:01N 49°19' W 123°28'918.7
2019-Jul-15 00:30N 49°20' W 123°13'510.6
2019-Jul-15 00:00N 49°18' W 123°06'1 1.6
2019-Jul-14 23:30N 49°17' W 123°07'0 0.0
2019-Jul-14 22:33N 49°17' W 123°07'0 0.0
2019-Jul-14 22:27N 49°17' W 123°07'0 0.0
2019-Jul-14 21:57N 49°17' W 123°07'0 0.0
2019-Jul-14 21:30N 49°17' W 123°07'0 0.0
2019-Jul-14 20:54N 49°17' W 123°07'0 0.0
2019-Jul-14 20:30N 49°17' W 123°07'0 0.0
2019-Jul-14 20:00N 49°17' W 123°07'0 0.0
2019-Jul-14 19:28N 49°17' W 123°07'0 0.0
2019-Jul-14 18:55N 49°17' W 123°07'0 0.0
2019-Jul-14 18:25N 49°17' W 123°07'0 0.0
2019-Jul-14 17:58N 49°17' W 123°07'0 0.0
2019-Jul-14 17:28N 49°17' W 123°07'0 0.0
2019-Jul-14 16:58N 49°17' W 123°07'0 0.0
2019-Jul-14 16:28N 49°17' W 123°07'0 0.0
2019-Jul-14 15:58N 49°17' W 123°07'0 0.0
2019-Jul-14 15:28N 49°17' W 123°07'0 0.0
2019-Jul-14 14:58N 49°17' W 123°07'0 0.0
2019-Jul-14 14:28N 49°17' W 123°07'0 0.0
2019-Jul-14 14:00N 49°17' W 123°07'1 1.1
2019-Jul-14 13:31N 49°18' W 123°06'4 7.2
2019-Jul-14 13:01N 49°19' W 123°11'611.8
2019-Jul-14 12:30N 49°18' W 123°20'713.1
2019-Jul-14 12:00N 49°17' W 123°30'714.5
2019-Jul-14 11:30N 49°18' W 123°41'815.4
2019-Jul-14 11:00N 49°20' W 123°53'815.4
2019-Jul-14 10:31N 49°22' W 124°04'815.1
2019-Jul-14 10:00N 49°24' W 124°15'714.7
2019-Jul-14 09:30N 49°27' W 124°26'714.6
2019-Jul-14 09:00N 49°32' W 124°34'714.9
2019-Jul-14 08:30N 49°38' W 124°42'715.0
2019-Jul-14 08:00N 49°43' W 124°49'714.9
2019-Jul-14 07:30N 49°49' W 124°57'715.0
2019-Jul-14 07:01N 49°54' W 125°05'714.2
2019-Jul-14 06:30N 49°60' W 125°12'612.4
2019-Jul-14 06:00N 50°05' W 125°17'510.7
2019-Jul-14 05:30N 50°09' W 125°22'3 6.6
2019-Jul-14 05:00N 50°12' W 125°18'4562.1 350 / 41017.010.8 16.512.515.0
2019-Jul-14 04:59N 50°15' W 125°23'9 8.9
2019-Jul-14 04:00N 50°18' W 125°36'820.5 260 / 101016.710.8 15.910.215.0
2019-Jul-14 03:36N 50°22' W 125°47'5 8.2
2019-Jul-14 03:00N 50°24' W 125°54'1111.5 340 / 91016.810.8 15.0 8.715.0
2019-Jul-14 02:00N 50°24' W 126°12'5317.1 290 / 121017.210.8 15.010.615.0
2019-Jul-13 22:55N 50°49' W 127°25'715.9
2019-Jul-13 22:31N 50°52' W 127°34'917.0
2019-Jul-13 22:00N 50°57' W 127°45'1019.0
2019-Jul-13 21:30N 51°03' W 127°57'918.6
2019-Jul-13 21:00N 51°09' W 128°09'816.6
2019-Jul-13 20:31N 51°13' W 128°20'815.8
2019-Jul-13 20:01N 51°19' W 128°28'918.9
2019-Jul-13 19:30N 51°27' W 128°37'918.9
2019-Jul-13 19:01N 51°34' W 128°47'919.0
2019-Jul-13 18:31N 51°42' W 128°55'917.0
2019-Jul-13 18:00N 51°49' W 129°04'918.0
2019-Jul-13 17:31N 51°56' W 129°12'918.7
2019-Jul-13 17:01N 52°03' W 129°21'918.6
2019-Jul-13 16:30N 52°11' W 129°31'917.8
2019-Jul-13 15:59N 52°18' W 129°39'1215.4
2019-Jul-13 15:12N 52°29' W 129°50'5015.8
2019-Jul-13 12:02N 53°11' W 130°34'116.1
2019-Jul-13 11:58N 53°12' W 130°35'816.3
2019-Jul-13 11:30N 53°18' W 130°42'816.2
2019-Jul-13 11:00N 53°26' W 130°46'816.3
2019-Jul-13 10:30N 53°34' W 130°50'816.5
2019-Jul-13 10:00N 53°42' W 130°53'816.2
2019-Jul-13 09:30N 53°50' W 130°57'816.2
2019-Jul-13 09:00N 53°57' W 131°00'815.6
2019-Jul-13 08:30N 54°05' W 131°02'815.7
2019-Jul-13 08:00N 54°13' W 131°02'714.5
2019-Jul-13 07:30N 54°20' W 130°59'816.5
2019-Jul-13 07:00N 54°27' W 131°07'918.6
2019-Jul-13 06:30N 54°35' W 131°15'1019.1
2019-Jul-13 06:00N 54°45' W 131°12'5725790.6
2019-Jul-13 06:00N 55°42' W 131°12'4896.1 130 / 81016.710.8 16.012.0
2019-Jul-13 05:29N 54°54' W 131°08'612.3
2019-Jul-13 05:00N 55°00' W 131°06'725.6 130 / 81016.510.8 15.011.2
2019-Jul-13 04:43N 55°07' W 131°09'710.0
2019-Jul-13 04:00N 55°12' W 131°18'90 6.0 090 / 151016.410.8 16.611.9
2019-Jul-12 13:00N 56°18' W 133°06'56 9.3 110 / 61018.2 2.2 12.011.712.0
2019-Jul-12 07:00N 57°00' W 134°12'6616.5 250 / 291017.0 5.4 13.0 8.7
2019-Jul-12 03:00N 58°06' W 134°06'71 3.4 200 / 61016.8 5.4 15.4 3.5
2019-Jul-11 06:00N 59°06' W 135°18'6 6.0 320 / 81010.2 5.4 15.0 3.2 7.4
2019-Jul-11 05:00N 59°12' W 135°18'3 1.5 030 / 61009.7 5.4 14.0 5.9 7.4
2019-Jul-11 03:00N 59°12' W 135°24'66 3.2 080 / 31009.3 5.4 13.0 2.5 7.4
2019-Jul-10 06:00N 58°06' W 135°12'4376.3 310 / 131013.7 5.4 15.010.6 7.4
2019-Jul-10 05:59N 58°09' W 135°17'510.7
2019-Jul-10 05:30N 58°12' W 135°26'2 4.4
2019-Jul-10 05:00N 58°12' W 135°30'46534.1 280 / 71013.9 5.4 17.011.3 7.4
2019-Jul-10 04:59N 58°15' W 135°35'510.3
2019-Jul-10 04:30N 58°17' W 135°43'510.1
2019-Jul-10 04:00N 58°19' W 135°52'5741.6
2019-Jul-10 04:00N 58°18' W 135°42'1020.0 240 / 171014.1 5.4 14.8 9.2 7.4
2019-Jul-10 03:30N 58°23' W 135°58'5 9.6
2019-Jul-10 03:00N 58°27' W 136°01'3214.0
2019-Jul-10 03:00N 58°24' W 136°00'918.2 200 / 141014.1 5.4 17.0 9.9 7.4
2019-Jul-10 02:30N 58°33' W 136°03'510.9
2019-Jul-10 02:01N 58°38' W 136°03'3156.2
2019-Jul-10 02:00N 58°36' W 136°00'815.8 130 / 111014.2 5.4 16.0 9.6 7.4
2019-Jul-10 01:30N 58°42' W 136°08'814.5
2019-Jul-10 00:57N 58°47' W 136°21'1616.3
2019-Jul-10 00:00N 58°54' W 136°48'12 2.2 330 / 21014.9 5.4 16.5-1.2 7.4
2019-Jul-09 18:48N 58°49' W 136°28'514.9
2019-Jul-09 18:28N 58°46' W 136°20'714.8
2019-Jul-09 18:00N 58°41' W 136°10'511.1
2019-Jul-09 17:30N 58°38' W 136°03'713.3
2019-Jul-09 17:00N 58°31' W 136°03'611.7
2019-Jul-09 16:30N 58°26' W 135°59'  
Track history (hours):
 
Tides and Currents Weather Stations Pressure Air Temp Water Temp Dewpoint Dewpoint Depression Visibility Wind Speed Wind Dir Waves Ship Positions

Westerdam

Operator: Holland America Line

Last reported at 2019-Jul-19 16:01 UTC. Time now 2019-Jul-19 18:46 UTC.
Position N 58°47' W 136°22'.

Type: Passenger vessel. MMSI: 244128000.

Date/timePositionNaut miles runAvg speedWind from/ knotsBaromVisibWave heightAir tempDewpointWater temp
2019-Jul-19 16:01N 58°47' W 136°22'015.5
2019-Jul-19 16:00N 58°47' W 136°21'714.1
2019-Jul-19 15:31N 58°42' W 136°11'714.0
2019-Jul-19 15:00N 58°36' W 136°04'612.8
2019-Jul-19 14:30N 58°29' W 136°03'510.2
2019-Jul-19 14:00N 58°25' W 135°58'4 8.8
2019-Jul-19 13:30N 58°21' W 135°57'5 9.8
2019-Jul-19 13:00N 58°19' W 135°48'713.0
2019-Jul-19 12:30N 58°16' W 135°37'612.8
2019-Jul-19 12:00N 58°14' W 135°26'  
2019-Jul-17 06:00N 56°12' W 133°42'1211.7 050 / 31002.2 2.2 13.112.216.4
2019-Jul-17 05:00N 56°18' W 133°24'1514.6 110 / 121003.5 2.2 15.414.316.4
2019-Jul-17 04:00N 56°12' W 133°00'5016.6 160 / 131004.6 2.2 14.3 7.116.4
2019-Jul-17 01:00N 55°30' W 132°12'40 2.5 140 / 271008.1 2.2 14.9 9.316.4
2019-Jul-16 09:07N 55°10' W 131°12'210.5
2019-Jul-16 08:59N 55°09' W 131°10'1511.5
2019-Jul-16 07:42N 54°54' W 131°08'211.5
2019-Jul-16 07:29N 54°52' W 131°08'611.6
2019-Jul-16 07:01N 54°46' W 131°09'611.7
2019-Jul-16 06:30N 54°41' W 131°14'713.5
2019-Jul-16 06:00N 54°35' W 131°17'713.3
2019-Jul-16 05:30N 54°28' W 131°16'612.3
2019-Jul-16 05:00N 54°24' W 131°09'2125.6
2019-Jul-16 05:00N 54°24' W 131°06'611.7 250 / 131017.710.8 15.0 9.415.7
2019-Jul-16 04:30N 54°19' W 131°03'612.5
2019-Jul-16 04:01N 54°12' W 131°02'603623.5
2019-Jul-16 04:00N 53°12' W 131°00'53109.8 310 / 61018.010.8 15.610.615.7
2019-Jul-16 03:31N 54°05' W 131°01'714.5
2019-Jul-16 03:00N 53°58' W 130°59'714.4
2019-Jul-16 02:30N 53°51' W 130°58'714.2
2019-Jul-16 02:01N 53°44' W 130°54'714.3
2019-Jul-16 01:30N 53°37' W 130°51'714.1
2019-Jul-16 01:00N 53°30' W 130°48'714.2
2019-Jul-16 00:30N 53°23' W 130°45'714.3
2019-Jul-16 00:00N 53°16' W 130°41'5338.8
2019-Jul-16 00:00N 53°12' W 130°36'3 6.2 270 / 141019.010.8 18.3 9.915.7
2019-Jul-15 23:29N 53°09' W 130°36'1019.7
2019-Jul-15 23:00N 53°00' W 130°30'1113.5 280 / 111019.410.8 17.212.115.7
2019-Jul-15 22:09N 52°51' W 130°19'531.8
2019-Jul-15 22:00N 52°48' W 130°12'247.0 290 / 71019.410.8 16.710.515.7
2019-Jul-15 21:57N 52°48' W 130°16'1316.2
2019-Jul-15 21:10N 52°38' W 130°04'216.0
2019-Jul-15 21:00N 52°36' W 130°02'172.7
2019-Jul-15 21:00N 52°36' W 130°00'816.0 270 / 121019.510.8 16.911.215.7
2019-Jul-15 20:30N 52°29' W 129°55'1222.7
2019-Jul-15 20:00N 52°18' W 129°48'221.4 270 / 101019.910.8 16.111.015.7
2019-Jul-15 19:53N 52°20' W 129°47'615.8
2019-Jul-15 19:30N 52°15' W 129°41'816.1
2019-Jul-15 19:01N 52°09' W 129°33'816.4
2019-Jul-15 18:30N 52°03' W 129°24'816.1
2019-Jul-15 18:00N 51°57' W 129°15'816.5
2019-Jul-15 17:30N 51°51' W 129°07'816.3
2019-Jul-15 17:00N 51°44' W 128°59'816.3
2019-Jul-15 16:30N 51°37' W 128°52'816.4
2019-Jul-15 16:00N 51°29' W 128°50'815.8
2019-Jul-15 15:30N 51°23' W 128°42'816.4
2019-Jul-15 15:00N 51°18' W 128°32'816.6
2019-Jul-15 14:30N 51°13' W 128°21'816.8
2019-Jul-15 14:00N 51°09' W 128°10'816.5
2019-Jul-15 13:30N 51°05' W 127°58'816.4
2019-Jul-15 13:00N 50°60' W 127°48'917.3
2019-Jul-15 12:30N 50°54' W 127°38'917.1
2019-Jul-15 11:59N 50°49' W 127°25'916.6
2019-Jul-15 11:28N 50°46' W 127°13'1115.7
2019-Jul-15 10:47N 50°42' W 126°57'4915.0
2019-Jul-15 07:32N 50°23' W 125°47'115.9
2019-Jul-15 07:29N 50°22' W 125°46'1315.4
2019-Jul-15 06:40N 50°20' W 125°26'214.0
2019-Jul-15 06:30N 50°18' W 125°25'816.2
2019-Jul-15 06:00N 50°10' W 125°22'612.9
2019-Jul-15 05:30N 50°05' W 125°16'714.6
2019-Jul-15 05:00N 49°58' W 125°11'919.2
2019-Jul-15 04:30N 49°52' W 125°00'1019.3
2019-Jul-15 04:01N 49°45' W 124°50'1121.3
2019-Jul-15 03:31N 49°39' W 124°37'1121.6
2019-Jul-15 03:00N 49°34' W 124°22'919.1
2019-Jul-15 02:31N 49°29' W 124°09'918.9
2019-Jul-15 02:01N 49°25' W 123°56'1019.0
2019-Jul-15 01:30N 49°22' W 123°42'1019.5
2019-Jul-15 01:01N 49°19' W 123°28'918.7
2019-Jul-15 00:30N 49°20' W 123°13'510.6
2019-Jul-15 00:00N 49°18' W 123°06'1 1.6
2019-Jul-14 23:30N 49°17' W 123°07'0 0.0
2019-Jul-14 22:33N 49°17' W 123°07'0 0.0
2019-Jul-14 22:27N 49°17' W 123°07'0 0.0
2019-Jul-14 21:57N 49°17' W 123°07'0 0.0
2019-Jul-14 21:30N 49°17' W 123°07'0 0.0
2019-Jul-14 20:54N 49°17' W 123°07'0 0.0
2019-Jul-14 20:30N 49°17' W 123°07'0 0.0
2019-Jul-14 20:00N 49°17' W 123°07'0 0.0
2019-Jul-14 19:28N 49°17' W 123°07'0 0.0
2019-Jul-14 18:55N 49°17' W 123°07'0 0.0
2019-Jul-14 18:25N 49°17' W 123°07'0 0.0
2019-Jul-14 17:58N 49°17' W 123°07'0 0.0
2019-Jul-14 17:28N 49°17' W 123°07'0 0.0
2019-Jul-14 16:58N 49°17' W 123°07'0 0.0
2019-Jul-14 16:28N 49°17' W 123°07'0 0.0
2019-Jul-14 15:58N 49°17' W 123°07'0 0.0
2019-Jul-14 15:28N 49°17' W 123°07'0 0.0
2019-Jul-14 14:58N 49°17' W 123°07'0 0.0
2019-Jul-14 14:28N 49°17' W 123°07'0 0.0
2019-Jul-14 14:00N 49°17' W 123°07'1 1.1
2019-Jul-14 13:31N 49°18' W 123°06'4 7.2
2019-Jul-14 13:01N 49°19' W 123°11'611.8
2019-Jul-14 12:30N 49°18' W 123°20'713.1
2019-Jul-14 12:00N 49°17' W 123°30'714.5
2019-Jul-14 11:30N 49°18' W 123°41'815.4
2019-Jul-14 11:00N 49°20' W 123°53'815.4
2019-Jul-14 10:31N 49°22' W 124°04'815.1
2019-Jul-14 10:00N 49°24' W 124°15'714.7
2019-Jul-14 09:30N 49°27' W 124°26'714.6
2019-Jul-14 09:00N 49°32' W 124°34'714.9
2019-Jul-14 08:30N 49°38' W 124°42'715.0
2019-Jul-14 08:00N 49°43' W 124°49'714.9
2019-Jul-14 07:30N 49°49' W 124°57'715.0
2019-Jul-14 07:01N 49°54' W 125°05'714.2
2019-Jul-14 06:30N 49°60' W 125°12'612.4
2019-Jul-14 06:00N 50°05' W 125°17'510.7
2019-Jul-14 05:30N 50°09' W 125°22'3 6.6
2019-Jul-14 05:00N 50°12' W 125°18'4562.1 350 / 41017.010.8 16.512.515.0
2019-Jul-14 04:59N 50°15' W 125°23'9 8.9
2019-Jul-14 04:00N 50°18' W 125°36'820.5 260 / 101016.710.8 15.910.215.0
2019-Jul-14 03:36N 50°22' W 125°47'5 8.2
2019-Jul-14 03:00N 50°24' W 125°54'1111.5 340 / 91016.810.8 15.0 8.715.0
2019-Jul-14 02:00N 50°24' W 126°12'5317.1 290 / 121017.210.8 15.010.615.0
2019-Jul-13 22:55N 50°49' W 127°25'715.9
2019-Jul-13 22:31N 50°52' W 127°34'917.0
2019-Jul-13 22:00N 50°57' W 127°45'1019.0
2019-Jul-13 21:30N 51°03' W 127°57'918.6
2019-Jul-13 21:00N 51°09' W 128°09'816.6
2019-Jul-13 20:31N 51°13' W 128°20'815.8
2019-Jul-13 20:01N 51°19' W 128°28'918.9
2019-Jul-13 19:30N 51°27' W 128°37'918.9
2019-Jul-13 19:01N 51°34' W 128°47'919.0
2019-Jul-13 18:31N 51°42' W 128°55'917.0
2019-Jul-13 18:00N 51°49' W 129°04'918.0
2019-Jul-13 17:31N 51°56' W 129°12'918.7
2019-Jul-13 17:01N 52°03' W 129°21'918.6
2019-Jul-13 16:30N 52°11' W 129°31'917.8
2019-Jul-13 15:59N 52°18' W 129°39'1215.4
2019-Jul-13 15:12N 52°29' W 129°50'5015.8
2019-Jul-13 12:02N 53°11' W 130°34'116.1
2019-Jul-13 11:58N 53°12' W 130°35'816.3
2019-Jul-13 11:30N 53°18' W 130°42'816.2
2019-Jul-13 11:00N 53°26' W 130°46'816.3
2019-Jul-13 10:30N 53°34' W 130°50'816.5
2019-Jul-13 10:00N 53°42' W 130°53'816.2
2019-Jul-13 09:30N 53°50' W 130°57'816.2
2019-Jul-13 09:00N 53°57' W 131°00'815.6
2019-Jul-13 08:30N 54°05' W 131°02'815.7
2019-Jul-13 08:00N 54°13' W 131°02'714.5
2019-Jul-13 07:30N 54°20' W 130°59'816.5
2019-Jul-13 07:00N 54°27' W 131°07'918.6
2019-Jul-13 06:30N 54°35' W 131°15'1019.1
2019-Jul-13 06:00N 54°45' W 131°12'5725790.6
2019-Jul-13 06:00N 55°42' W 131°12'4896.1 130 / 81016.710.8 16.012.0
2019-Jul-13 05:29N 54°54' W 131°08'612.3
2019-Jul-13 05:00N 55°00' W 131°06'725.6 130 / 81016.510.8 15.011.2
2019-Jul-13 04:43N 55°07' W 131°09'710.0
2019-Jul-13 04:00N 55°12' W 131°18'90 6.0 090 / 151016.410.8 16.611.9
2019-Jul-12 13:00N 56°18' W 133°06'56 9.3 110 / 61018.2 2.2 12.011.712.0
2019-Jul-12 07:00N 57°00' W 134°12'6616.5 250 / 291017.0 5.4 13.0 8.7
2019-Jul-12 03:00N 58°06' W 134°06'71 3.4 200 / 61016.8 5.4 15.4 3.5
2019-Jul-11 06:00N 59°06' W 135°18'6 6.0 320 / 81010.2 5.4 15.0 3.2 7.4
2019-Jul-11 05:00N 59°12' W 135°18'3 1.5 030 / 61009.7 5.4 14.0 5.9 7.4
2019-Jul-11 03:00N 59°12' W 135°24'66 3.2 080 / 31009.3 5.4 13.0 2.5 7.4
2019-Jul-10 06:00N 58°06' W 135°12'4376.3 310 / 131013.7 5.4 15.010.6 7.4
2019-Jul-10 05:59N 58°09' W 135°17'510.7
2019-Jul-10 05:30N 58°12' W 135°26'2 4.4
2019-Jul-10 05:00N 58°12' W 135°30'46534.1 280 / 71013.9 5.4 17.011.3 7.4
2019-Jul-10 04:59N 58°15' W 135°35'510.3
2019-Jul-10 04:30N 58°17' W 135°43'510.1
2019-Jul-10 04:00N 58°19' W 135°52'5741.6
2019-Jul-10 04:00N 58°18' W 135°42'1020.0 240 / 171014.1 5.4 14.8 9.2 7.4
2019-Jul-10 03:30N 58°23' W 135°58'5 9.6
2019-Jul-10 03:00N 58°27' W 136°01'3214.0
2019-Jul-10 03:00N 58°24' W 136°00'918.2 200 / 141014.1 5.4 17.0 9.9 7.4
2019-Jul-10 02:30N 58°33' W 136°03'510.9
2019-Jul-10 02:01N 58°38' W 136°03'3156.2
2019-Jul-10 02:00N 58°36' W 136°00'815.8 130 / 111014.2 5.4 16.0 9.6 7.4
2019-Jul-10 01:30N 58°42' W 136°08'814.5
2019-Jul-10 00:57N 58°47' W 136°21'1616.3
2019-Jul-10 00:00N 58°54' W 136°48'12 2.2 330 / 21014.9 5.4 16.5-1.2 7.4
2019-Jul-09 18:48N 58°49' W 136°28'514.9
2019-Jul-09 18:28N 58°46' W 136°20'714.8
2019-Jul-09 18:00N 58°41' W 136°10'511.1
2019-Jul-09 17:30N 58°38' W 136°03'713.3
2019-Jul-09 17:00N 58°31' W 136°03'611.7
2019-Jul-09 16:30N 58°26' W 135°59'  

Dump ship's entire track history